createdAt,value
2022-08-20T00:02:16.757Z,14.60
2022-08-20T00:04:45.298Z,12.10
2022-08-20T00:07:14.547Z,16.70
2022-08-20T00:09:43.715Z,11.90
2022-08-20T00:12:16.366Z,12.50
2022-08-20T00:14:44.552Z,12.70
2022-08-20T00:17:12.706Z,11.50
2022-08-20T00:19:40.897Z,15.50
2022-08-20T00:22:09.308Z,15.40
2022-08-20T00:24:37.791Z,18.70
2022-08-20T00:27:06.129Z,15.90
2022-08-20T00:29:34.622Z,15.70
2022-08-20T00:32:03.297Z,17.90
2022-08-20T00:34:31.581Z,13.80
2022-08-20T00:36:59.772Z,15.10
2022-08-20T00:39:28.360Z,13.90
2022-08-20T00:41:56.499Z,17.50
2022-08-20T00:44:24.950Z,13.30
2022-08-20T00:46:53.788Z,13.40
2022-08-20T00:49:28.324Z,16.90
2022-08-20T00:51:59.311Z,16.30
2022-08-20T00:54:34.926Z,12.70
2022-08-20T00:57:10.725Z,14.30
2022-08-20T00:59:42.163Z,13.90
2022-08-20T01:02:14.730Z,15.80
2022-08-20T01:04:55.610Z,12.20
2022-08-20T01:07:35.231Z,14.80
2022-08-20T01:10:11.845Z,13.50
2022-08-20T01:12:43.436Z,11.50
2022-08-20T01:15:15.657Z,16.40
2022-08-20T01:20:22.872Z,16.00
2022-08-20T01:23:26.722Z,15.20
2022-08-20T01:26:23.399Z,14.70
2022-08-20T01:29:14.964Z,16.80
2022-08-20T01:31:43.751Z,16.60
2022-08-20T01:34:15.586Z,15.00
2022-08-20T01:36:48.568Z,19.50
2022-08-20T01:39:24.606Z,20.00
2022-08-20T01:41:58.187Z,12.00
2022-08-20T01:44:27.357Z,17.80
2022-08-20T01:46:57.504Z,18.30
2022-08-20T01:49:30.124Z,13.60
2022-08-20T01:52:01.410Z,18.70
2022-08-20T01:54:29.541Z,20.60
2022-08-20T01:57:12.474Z,20.50
2022-08-20T01:59:41.258Z,17.50
2022-08-20T02:02:12.946Z,17.30
2022-08-20T02:04:42.011Z,26.70
2022-08-20T02:07:16.421Z,27.50
2022-08-20T02:09:45.663Z,21.60
2022-08-20T02:12:17.598Z,19.50
2022-08-20T02:14:51.676Z,19.70
2022-08-20T02:17:23.287Z,16.30
2022-08-20T02:19:57.779Z,20.60
2022-08-20T02:22:50.468Z,18.30
2022-08-20T02:25:23.144Z,19.70
2022-08-20T02:27:53.977Z,17.20
2022-08-20T02:30:28.680Z,17.70
2022-08-20T02:32:58.736Z,18.10
2022-08-20T02:35:28.066Z,16.10
2022-08-20T02:37:56.656Z,18.00
2022-08-20T02:40:31.252Z,15.70
2022-08-20T02:43:00.958Z,23.20
2022-08-20T02:45:31.931Z,20.80
2022-08-20T02:48:00.102Z,21.80
2022-08-20T02:50:28.633Z,29.90
2022-08-20T02:52:57.121Z,18.50
2022-08-20T02:55:28.027Z,22.80
2022-08-20T02:57:59.219Z,22.30
2022-08-20T03:00:38.107Z,24.20
2022-08-20T03:03:09.041Z,21.80
2022-08-20T03:05:42.070Z,22.00
2022-08-20T03:08:12.556Z,24.50
2022-08-20T03:10:43.745Z,21.80
2022-08-20T03:13:13.592Z,22.60
2022-08-20T03:15:44.999Z,25.20
2022-08-20T03:18:14.754Z,20.20
2022-08-20T03:20:46.004Z,17.40
2022-08-20T03:23:15.050Z,17.10
2022-08-20T03:25:44.099Z,19.10
2022-08-20T03:28:13.823Z,20.10
2022-08-20T03:30:42.803Z,17.50
2022-08-20T03:33:11.067Z,20.30
2022-08-20T03:35:39.919Z,20.30
2022-08-20T03:38:10.938Z,19.70
2022-08-20T03:40:39.275Z,26.30
2022-08-20T03:43:11.649Z,18.90
2022-08-20T03:48:11.497Z,22.60
2022-08-20T03:50:42.679Z,19.30
2022-08-20T03:53:14.768Z,25.20
2022-08-20T03:58:29.872Z,18.00
2022-08-20T04:01:06.807Z,20.90
2022-08-20T04:03:35.655Z,24.10
2022-08-20T04:06:04.551Z,15.90
2022-08-20T04:08:33.588Z,16.50
2022-08-20T04:11:02.220Z,20.00
2022-08-20T04:13:31.506Z,20.40
2022-08-20T04:16:04.122Z,17.50
2022-08-20T04:18:33.263Z,18.50
2022-08-20T04:21:01.622Z,18.90
2022-08-20T04:23:31.353Z,15.00
2022-08-20T04:26:00.887Z,21.40
2022-08-20T04:28:29.071Z,23.30
2022-08-20T04:31:01.128Z,17.90
2022-08-20T04:33:35.167Z,17.80
2022-08-20T04:36:06.511Z,20.40
2022-08-20T04:38:49.622Z,20.30
2022-08-20T04:41:24.389Z,16.20
2022-08-20T04:43:54.531Z,23.80
2022-08-20T04:46:28.170Z,22.10
2022-08-20T04:48:57.830Z,19.80
2022-08-20T04:51:26.894Z,26.40
2022-08-20T04:53:57.532Z,17.50
2022-08-20T04:56:29.550Z,13.90
2022-08-20T05:01:28.013Z,17.70
2022-08-20T05:03:57.973Z,19.20
2022-08-20T05:06:31.024Z,18.40
2022-08-20T05:09:00.753Z,18.60
2022-08-20T05:11:35.813Z,15.50
2022-08-20T05:14:09.226Z,14.20
2022-08-20T05:16:39.515Z,16.60
2022-08-20T05:19:11.486Z,14.20
2022-08-20T05:21:41.245Z,18.50
2022-08-20T05:24:12.346Z,14.50
2022-08-20T05:26:40.915Z,22.90
2022-08-20T05:29:09.119Z,16.30
2022-08-20T05:31:38.743Z,18.10
2022-08-20T05:34:10.966Z,16.20
2022-08-20T05:36:46.878Z,14.10
2022-08-20T05:39:20.744Z,17.60
2022-08-20T05:41:51.504Z,14.40
2022-08-20T05:44:20.033Z,21.10
2022-08-20T05:46:48.640Z,16.30
2022-08-20T05:49:21.444Z,16.50
2022-08-20T05:51:51.715Z,17.50
2022-08-20T05:54:21.460Z,14.90
2022-08-20T05:56:50.838Z,17.60
2022-08-20T05:59:23.535Z,19.30
2022-08-20T06:01:53.140Z,24.90
2022-08-20T06:04:32.253Z,20.00
2022-08-20T06:07:07.419Z,14.00
2022-08-20T06:09:36.517Z,15.70
2022-08-20T06:12:09.131Z,17.60
2022-08-20T06:14:37.511Z,18.70
2022-08-20T06:17:09.205Z,16.20
2022-08-20T06:19:40.038Z,22.40
2022-08-20T06:22:20.466Z,23.40
2022-08-20T06:24:55.674Z,13.10
2022-08-20T06:27:24.846Z,14.20
2022-08-20T06:29:54.037Z,18.30
2022-08-20T06:32:31.795Z,18.10
2022-08-20T06:35:03.638Z,17.70
2022-08-20T06:37:33.932Z,12.90
2022-08-20T06:40:14.710Z,12.30
2022-08-20T06:42:48.133Z,16.80
2022-08-20T06:45:26.495Z,14.00
2022-08-20T06:47:58.157Z,17.70
2022-08-20T06:50:32.856Z,17.10
2022-08-20T06:53:01.033Z,20.10
2022-08-20T06:55:30.124Z,13.90
2022-08-20T06:58:00.619Z,15.60
2022-08-20T07:00:31.974Z,15.40
2022-08-20T07:03:01.758Z,17.80
2022-08-20T07:05:32.615Z,15.40
2022-08-20T07:08:01.750Z,17.30
2022-08-20T07:10:30.688Z,17.10
2022-08-20T07:13:00.366Z,19.00
2022-08-20T07:15:30.445Z,13.90
2022-08-20T07:18:01.939Z,18.30
2022-08-20T07:20:32.887Z,10.20
2022-08-20T07:23:01.507Z,15.60
2022-08-20T07:25:33.829Z,12.00
2022-08-20T07:28:08.634Z,22.70
2022-08-20T07:30:55.978Z,16.50
2022-08-20T07:33:28.420Z,14.10
2022-08-20T07:35:59.077Z,13.50
2022-08-20T07:38:30.426Z,16.40
2022-08-20T07:41:03.658Z,9.90
2022-08-20T07:43:33.184Z,13.00
2022-08-20T07:46:08.599Z,12.80
2022-08-20T07:48:42.278Z,14.20
2022-08-20T07:51:11.160Z,10.60
2022-08-20T07:53:40.828Z,18.30
2022-08-20T07:56:12.808Z,15.70
2022-08-20T07:58:49.949Z,12.10
2022-08-20T08:01:21.358Z,12.50
2022-08-20T08:03:51.731Z,14.00
2022-08-20T08:06:28.523Z,11.10
2022-08-20T08:09:07.321Z,13.70
2022-08-20T08:11:38.300Z,13.50
2022-08-20T08:14:09.833Z,11.10
2022-08-20T08:16:39.454Z,13.60
2022-08-20T08:19:12.303Z,15.70
2022-08-20T08:21:41.694Z,11.20
2022-08-20T08:24:14.335Z,9.70
2022-08-20T08:26:45.293Z,10.90
2022-08-20T08:29:13.826Z,8.80
2022-08-20T08:31:42.697Z,17.10
2022-08-20T08:34:11.750Z,8.50
2022-08-20T08:36:40.688Z,12.50
2022-08-20T08:39:08.955Z,9.30
2022-08-20T08:41:40.215Z,10.40
2022-08-20T08:44:24.258Z,10.60
2022-08-20T08:47:01.683Z,9.20
2022-08-20T08:49:37.651Z,8.90
2022-08-20T08:52:14.991Z,14.50
2022-08-20T08:54:49.144Z,8.70
2022-08-20T08:57:17.595Z,10.50
2022-08-20T09:00:03.957Z,13.30
2022-08-20T09:02:36.466Z,6.50
2022-08-20T09:05:17.052Z,8.40
2022-08-20T09:07:51.314Z,12.50
2022-08-20T09:10:23.329Z,8.90
2022-08-20T09:12:52.575Z,7.50
2022-08-20T09:15:21.782Z,8.40
2022-08-20T09:17:50.323Z,7.70
2022-08-20T09:20:18.895Z,15.30
2022-08-20T09:22:47.170Z,11.00
2022-08-20T09:25:17.380Z,11.70
2022-08-20T09:27:46.174Z,9.90
2022-08-20T09:30:18.483Z,13.50
2022-08-20T09:32:47.103Z,12.10
2022-08-20T09:35:16.153Z,10.50
2022-08-20T09:37:44.387Z,12.70
2022-08-20T09:40:14.200Z,12.60
2022-08-20T09:42:50.622Z,10.60
2022-08-20T09:45:19.378Z,8.10
2022-08-20T09:47:54.836Z,11.20
2022-08-20T09:50:28.053Z,9.40
2022-08-20T09:52:59.491Z,10.60
2022-08-20T09:55:44.571Z,6.90
2022-08-20T09:58:31.243Z,8.40
2022-08-20T10:01:04.351Z,10.70
2022-08-20T10:03:32.599Z,6.90
2022-08-20T10:06:00.770Z,9.30
2022-08-20T10:08:29.402Z,9.60
2022-08-20T10:10:57.758Z,13.80
2022-08-20T10:13:26.062Z,11.10
2022-08-20T10:15:54.212Z,11.70
2022-08-20T10:18:22.397Z,7.80
2022-08-20T10:20:50.492Z,9.10
2022-08-20T10:23:18.675Z,7.40
2022-08-20T10:25:46.799Z,5.90
2022-08-20T10:28:14.970Z,8.70
2022-08-20T10:30:45.316Z,5.80
2022-08-20T10:33:13.391Z,8.70
2022-08-20T10:35:41.702Z,7.30
2022-08-20T10:38:10.272Z,12.50
2022-08-20T10:40:38.391Z,5.70
2022-08-20T10:43:06.620Z,8.10
2022-08-20T10:45:34.717Z,7.60
2022-08-20T10:48:04.706Z,7.50
2022-08-20T10:50:32.843Z,9.10
2022-08-20T10:53:00.926Z,5.70
2022-08-20T10:55:29.160Z,6.10
2022-08-20T10:57:57.891Z,8.60
2022-08-20T11:00:27.002Z,6.20
2022-08-20T11:02:55.553Z,9.10
2022-08-20T11:05:24.005Z,6.30
2022-08-20T11:07:56.140Z,6.70
2022-08-20T11:10:27.558Z,8.20
2022-08-20T11:12:55.852Z,5.40
2022-08-20T11:15:24.776Z,7.90
2022-08-20T11:17:53.691Z,6.90
2022-08-20T11:20:25.296Z,9.40
2022-08-20T11:22:54.719Z,6.10
2022-08-20T11:25:22.864Z,5.90
2022-08-20T11:27:52.650Z,7.70
2022-08-20T11:30:28.450Z,8.60
2022-08-20T11:32:58.844Z,9.20
2022-08-20T11:35:48.996Z,7.20
2022-08-20T11:38:19.608Z,20.70
2022-08-20T11:40:47.943Z,3.60
2022-08-20T11:43:17.475Z,5.10
2022-08-20T11:45:50.533Z,10.00
2022-08-20T11:48:19.147Z,7.10
2022-08-20T11:50:48.537Z,7.30
2022-08-20T11:53:17.098Z,6.30
2022-08-20T11:55:46.319Z,6.90
2022-08-20T11:58:16.101Z,9.90
2022-08-20T12:00:44.339Z,6.30
2022-08-20T12:03:13.152Z,7.90
2022-08-20T12:05:44.337Z,8.60
2022-08-20T12:08:27.319Z,9.20
2022-08-20T12:11:01.616Z,7.20
2022-08-20T12:13:47.405Z,5.90
2022-08-20T12:16:20.368Z,6.20
2022-08-20T12:18:49.071Z,7.40
2022-08-20T12:21:17.871Z,9.70
2022-08-20T12:23:46.324Z,5.40
2022-08-20T12:26:16.881Z,5.70
2022-08-20T12:28:45.008Z,6.60
2022-08-20T12:31:13.244Z,10.50
2022-08-20T12:33:41.551Z,9.50
2022-08-20T12:36:09.826Z,11.00
2022-08-20T12:38:37.974Z,6.90
2022-08-20T12:41:06.943Z,6.60
2022-08-20T12:43:35.166Z,8.40
2022-08-20T12:46:03.352Z,8.00
2022-08-20T12:48:31.492Z,10.40
2022-08-20T12:50:59.755Z,6.20
2022-08-20T12:53:29.447Z,6.50
2022-08-20T12:55:57.580Z,10.40
2022-08-20T12:58:25.757Z,7.60
2022-08-20T13:00:54.089Z,7.50
2022-08-20T13:03:22.249Z,11.80
2022-08-20T13:05:50.791Z,11.60
2022-08-20T13:08:19.700Z,11.30
2022-08-20T13:10:48.393Z,8.80
2022-08-20T13:13:20.998Z,11.10
2022-08-20T13:15:51.325Z,13.00
2022-08-20T13:18:20.899Z,6.50
2022-08-20T13:20:49.168Z,7.40
2022-08-20T13:23:17.763Z,7.80
2022-08-20T13:25:46.094Z,8.30
2022-08-20T13:28:14.215Z,14.10
2022-08-20T13:30:42.457Z,11.30
2022-08-20T13:33:10.636Z,9.70
2022-08-20T13:35:38.907Z,11.30
2022-08-20T13:38:07.115Z,11.50
2022-08-20T13:40:35.863Z,19.70
2022-08-20T13:43:07.113Z,8.40
2022-08-20T13:45:39.954Z,12.40
2022-08-20T13:48:09.951Z,18.00
2022-08-20T13:50:47.154Z,16.50
2022-08-20T13:53:17.495Z,18.20
2022-08-20T13:55:46.701Z,17.70
2022-08-20T13:58:14.918Z,17.70
2022-08-20T14:00:43.635Z,18.20
2022-08-20T14:03:12.686Z,17.30
2022-08-20T14:05:42.239Z,18.00
2022-08-20T14:08:21.446Z,18.20
2022-08-20T14:10:51.636Z,18.30
2022-08-20T14:13:24.130Z,17.20
2022-08-20T14:15:52.942Z,16.00
2022-08-20T14:18:21.160Z,25.60
2022-08-20T14:20:49.834Z,15.20
2022-08-20T14:23:17.970Z,18.60
2022-08-20T14:25:49.686Z,17.10
2022-08-20T14:28:21.145Z,18.10
2022-08-20T14:30:53.054Z,18.20
2022-08-20T14:33:24.152Z,21.60
2022-08-20T14:35:53.101Z,18.80
2022-08-20T14:38:21.862Z,18.90
2022-08-20T14:40:50.799Z,17.00
2022-08-20T14:43:19.775Z,17.50
2022-08-20T14:45:48.267Z,16.90
2022-08-20T14:48:16.632Z,22.10
2022-08-20T14:50:45.014Z,18.90
2022-08-20T14:53:13.142Z,15.60
2022-08-20T14:55:41.339Z,18.30
2022-08-20T14:58:12.168Z,10.40
2022-08-20T15:00:40.661Z,11.90
2022-08-20T15:03:09.222Z,11.80
2022-08-20T15:05:39.457Z,14.40
2022-08-20T15:08:10.737Z,11.40
2022-08-20T15:10:39.723Z,11.10
2022-08-20T15:13:09.112Z,11.30
2022-08-20T15:15:37.686Z,16.50
2022-08-20T15:18:06.536Z,11.20
2022-08-20T15:20:36.591Z,11.40
2022-08-20T15:23:06.366Z,8.40
2022-08-20T15:25:36.865Z,13.60
2022-08-20T15:28:09.074Z,6.80
2022-08-20T15:30:40.237Z,13.40
2022-08-20T15:33:11.441Z,16.60
2022-08-20T15:35:39.740Z,13.00
2022-08-20T15:38:08.403Z,10.20
2022-08-20T15:40:37.380Z,11.20
2022-08-20T15:43:06.186Z,13.00
2022-08-20T15:45:35.545Z,14.00
2022-08-20T15:48:13.467Z,10.50
2022-08-20T15:51:04.363Z,13.10
2022-08-20T15:53:36.165Z,12.20
2022-08-20T15:56:20.111Z,12.60
2022-08-20T15:59:12.283Z,12.40
2022-08-20T16:01:58.520Z,13.70
2022-08-20T16:04:37.441Z,10.80
2022-08-20T16:07:26.285Z,18.40
2022-08-20T16:10:15.881Z,13.20
2022-08-20T16:12:49.877Z,14.40
2022-08-20T16:15:31.815Z,15.60
2022-08-20T16:18:06.713Z,9.30
2022-08-20T16:20:48.584Z,14.10
2022-08-20T16:23:20.070Z,13.70
2022-08-20T16:26:05.402Z,13.40
2022-08-20T16:28:41.927Z,14.10
2022-08-20T16:31:14.873Z,14.20
2022-08-20T16:33:54.806Z,20.00
2022-08-20T16:36:32.450Z,13.80
2022-08-20T16:39:20.176Z,13.20
2022-08-20T16:41:53.655Z,16.60
2022-08-20T16:44:39.711Z,13.60
2022-08-20T16:47:33.488Z,17.00
2022-08-20T16:50:12.102Z,12.40
2022-08-20T16:52:43.840Z,13.10
2022-08-20T16:55:13.120Z,16.50
2022-08-20T16:57:41.523Z,13.70
2022-08-20T17:00:21.242Z,14.00
2022-08-20T17:02:50.845Z,14.70
2022-08-20T17:05:20.099Z,15.70
2022-08-20T17:07:53.112Z,15.40
2022-08-20T17:13:20.712Z,13.80
2022-08-20T17:16:02.585Z,17.20
2022-08-20T17:18:35.302Z,13.60
2022-08-20T17:21:23.362Z,14.00
2022-08-20T17:23:56.814Z,15.10
2022-08-20T17:26:28.228Z,10.70
2022-08-20T17:28:59.830Z,13.10
2022-08-20T17:31:38.564Z,14.40
2022-08-20T17:34:22.711Z,13.10
2022-08-20T17:36:55.652Z,12.30
2022-08-20T17:39:26.740Z,17.40
2022-08-20T17:42:08.977Z,13.60
2022-08-20T17:47:18.796Z,17.20
2022-08-20T17:50:02.154Z,16.30
2022-08-20T17:52:39.201Z,14.70
2022-08-20T17:55:08.750Z,16.70
2022-08-20T17:57:40.399Z,15.30
2022-08-20T18:00:15.700Z,14.20
2022-08-20T18:02:44.436Z,13.60
2022-08-20T18:05:19.198Z,14.00
2022-08-20T18:08:09.446Z,15.70
2022-08-20T18:11:09.996Z,15.60
2022-08-20T18:13:57.063Z,15.80
2022-08-20T18:16:41.171Z,18.90
2022-08-20T18:19:24.606Z,11.90
2022-08-20T18:22:10.194Z,18.00
2022-08-20T18:25:06.498Z,14.20
2022-08-20T18:27:53.145Z,15.00
2022-08-20T18:30:25.176Z,17.80
2022-08-20T18:33:07.677Z,12.60
2022-08-20T18:35:44.876Z,14.20
2022-08-20T18:38:17.430Z,11.60
2022-08-20T18:40:45.648Z,16.30
2022-08-20T18:43:28.046Z,15.50
2022-08-20T18:45:56.428Z,17.60
2022-08-20T18:48:25.959Z,14.80
2022-08-20T18:50:57.479Z,10.20
2022-08-20T18:53:34.394Z,12.60
2022-08-20T18:56:07.936Z,14.10
2022-08-20T18:59:05.783Z,18.40
2022-08-20T19:01:37.316Z,10.80
2022-08-20T19:04:26.686Z,13.90
2022-08-20T19:07:00.760Z,14.20
2022-08-20T19:10:06.661Z,11.30
2022-08-20T19:12:45.542Z,14.20
2022-08-20T19:15:19.242Z,17.20
2022-08-20T19:18:07.370Z,13.10
2022-08-20T19:20:38.886Z,11.50
2022-08-20T19:23:14.644Z,15.10
2022-08-20T19:25:55.695Z,15.90
2022-08-20T19:28:41.319Z,12.40
2022-08-20T19:31:31.919Z,11.40
2022-08-20T19:34:21.599Z,10.70
2022-08-20T19:37:27.561Z,13.00
2022-08-20T19:39:52.571Z,13.90
2022-08-20T19:42:25.770Z,12.50
2022-08-20T19:44:55.802Z,13.40
2022-08-20T19:47:33.729Z,17.20
2022-08-20T19:50:36.692Z,12.00
2022-08-20T19:53:14.124Z,10.30
2022-08-20T19:55:42.476Z,11.00
2022-08-20T19:58:26.423Z,14.70
2022-08-20T20:00:56.489Z,16.80
2022-08-20T20:03:32.983Z,11.80
2022-08-20T20:06:21.563Z,14.90
2022-08-20T20:09:17.722Z,11.30
2022-08-20T20:11:58.586Z,14.10
2022-08-20T20:14:30.757Z,14.80
2022-08-20T20:17:00.394Z,13.90
2022-08-20T20:19:28.851Z,12.50
2022-08-20T20:22:19.278Z,14.50
2022-08-20T20:25:15.562Z,8.10
2022-08-20T20:27:53.398Z,12.30
2022-08-20T20:30:30.750Z,13.50
2022-08-20T20:33:03.375Z,16.30
2022-08-20T20:35:35.889Z,9.80
2022-08-20T20:38:08.139Z,10.90
2022-08-20T20:40:51.182Z,12.50
2022-08-20T20:43:33.118Z,12.30
2022-08-20T20:46:16.185Z,16.30
2022-08-20T20:49:05.097Z,8.90
2022-08-20T20:51:36.723Z,15.40
2022-08-20T20:54:21.338Z,16.70
2022-08-20T20:57:05.836Z,13.00
2022-08-20T20:59:35.726Z,11.00
2022-08-20T21:02:04.879Z,10.70
2022-08-20T21:04:33.299Z,11.20
2022-08-20T21:07:11.476Z,9.10
2022-08-20T21:09:41.932Z,12.00
2022-08-20T21:12:12.475Z,12.60
2022-08-20T21:14:41.229Z,14.40
2022-08-20T21:17:13.197Z,10.00
2022-08-20T21:22:14.506Z,10.50
2022-08-20T21:24:42.690Z,10.20
2022-08-20T21:27:12.391Z,8.40
2022-08-20T21:29:41.594Z,9.00
2022-08-20T21:32:12.410Z,16.00
2022-08-20T21:34:41.451Z,13.00
2022-08-20T21:37:10.274Z,11.50
2022-08-20T21:39:40.109Z,9.00
2022-08-20T21:42:21.137Z,11.10
2022-08-20T21:45:00.106Z,19.30
2022-08-20T21:47:28.365Z,13.50
2022-08-20T21:49:57.205Z,10.40
2022-08-20T21:52:25.393Z,15.70
2022-08-20T21:54:54.135Z,13.90
2022-08-20T21:57:28.411Z,11.00
2022-08-20T21:59:58.214Z,13.20
2022-08-20T22:02:27.451Z,11.90
2022-08-20T22:04:55.693Z,10.30
2022-08-20T22:07:24.010Z,15.20
2022-08-20T22:09:52.310Z,12.60
2022-08-20T22:12:26.995Z,10.00
2022-08-20T22:14:55.274Z,11.30
2022-08-20T22:17:23.583Z,13.40
2022-08-20T22:19:51.772Z,15.00
2022-08-20T22:22:21.553Z,12.40
2022-08-20T22:24:49.957Z,11.30
2022-08-20T22:27:18.229Z,12.90
2022-08-20T22:29:46.419Z,10.00
2022-08-20T22:32:14.877Z,13.00
2022-08-20T22:34:43.160Z,8.60
2022-08-20T22:37:13.710Z,12.30
2022-08-20T22:39:41.972Z,14.80
2022-08-20T22:42:10.630Z,9.80
2022-08-20T22:44:38.926Z,9.80
2022-08-20T22:47:09.170Z,15.90
2022-08-20T22:49:40.003Z,12.00
2022-08-20T22:52:09.278Z,16.30
2022-08-20T22:54:38.467Z,18.20
2022-08-20T22:57:13.758Z,12.10
2022-08-20T22:59:46.398Z,14.90
2022-08-20T23:02:22.988Z,11.80
2022-08-20T23:04:51.711Z,11.70
2022-08-20T23:07:20.122Z,13.80
2022-08-20T23:09:48.988Z,16.30
2022-08-20T23:12:17.335Z,17.00
2022-08-20T23:14:45.542Z,13.50
2022-08-20T23:17:19.192Z,16.40
2022-08-20T23:19:50.075Z,18.00
2022-08-20T23:22:19.468Z,12.80
2022-08-20T23:24:47.717Z,14.40
2022-08-20T23:27:18.835Z,15.20
2022-08-20T23:29:47.751Z,11.40
2022-08-20T23:32:17.374Z,12.30
2022-08-20T23:34:45.682Z,13.50
2022-08-20T23:37:19.104Z,9.80
2022-08-20T23:39:47.361Z,10.40
2022-08-20T23:42:17.025Z,12.10
2022-08-20T23:44:45.675Z,14.80
2022-08-20T23:47:21.570Z,12.00
2022-08-20T23:49:50.311Z,12.00
2022-08-20T23:52:18.823Z,9.40
2022-08-20T23:54:47.016Z,17.20
2022-08-20T23:57:16.487Z,16.70
2022-08-20T23:59:52.935Z,12.60
